sensor_id;sensor_type;location;lat;lon;timestamp;temperature;humidity
68433;DHT22;55412;51.350;17.056;2023-05-29T00:01:34;10.60;66.30
68433;DHT22;55412;51.350;17.056;2023-05-29T00:04:01;10.60;66.30
68433;DHT22;55412;51.350;17.056;2023-05-29T00:06:27;10.60;66.40
68433;DHT22;55412;51.350;17.056;2023-05-29T00:08:55;10.60;66.30
68433;DHT22;55412;51.350;17.056;2023-05-29T00:11:21;10.50;66.30
68433;DHT22;55412;51.350;17.056;2023-05-29T00:13:48;10.50;66.30
68433;DHT22;55412;51.350;17.056;2023-05-29T00:16:14;10.50;66.30
68433;DHT22;55412;51.350;17.056;2023-05-29T00:18:43;10.50;66.40
68433;DHT22;55412;51.350;17.056;2023-05-29T00:21:11;10.50;66.70
68433;DHT22;55412;51.350;17.056;2023-05-29T00:23:39;10.40;67.10
68433;DHT22;55412;51.350;17.056;2023-05-29T00:26:05;10.40;67.20
68433;DHT22;55412;51.350;17.056;2023-05-29T00:28:31;10.40;67.20
68433;DHT22;55412;51.350;17.056;2023-05-29T00:30:57;10.30;67.10
68433;DHT22;55412;51.350;17.056;2023-05-29T00:33:23;10.30;67.00
68433;DHT22;55412;51.350;17.056;2023-05-29T00:35:49;10.30;67.00
68433;DHT22;55412;51.350;17.056;2023-05-29T00:38:15;10.30;67.10
68433;DHT22;55412;51.350;17.056;2023-05-29T00:40:41;10.30;67.30
68433;DHT22;55412;51.350;17.056;2023-05-29T00:43:07;10.30;67.50
68433;DHT22;55412;51.350;17.056;2023-05-29T00:45:33;10.20;67.70
68433;DHT22;55412;51.350;17.056;2023-05-29T00:48:02;10.20;67.90
68433;DHT22;55412;51.350;17.056;2023-05-29T00:50:29;10.20;68.00
68433;DHT22;55412;51.350;17.056;2023-05-29T00:52:56;10.10;68.10
68433;DHT22;55412;51.350;17.056;2023-05-29T00:55:23;10.10;68.20
68433;DHT22;55412;51.350;17.056;2023-05-29T00:57:49;10.00;68.40
68433;DHT22;55412;51.350;17.056;2023-05-29T01:00:16;10.00;68.60
68433;DHT22;55412;51.350;17.056;2023-05-29T01:02:44;10.00;68.10
68433;DHT22;55412;51.350;17.056;2023-05-29T01:05:11;10.00;68.20
68433;DHT22;55412;51.350;17.056;2023-05-29T01:07:38;10.00;68.30
68433;DHT22;55412;51.350;17.056;2023-05-29T01:10:05;10.00;68.20
68433;DHT22;55412;51.350;17.056;2023-05-29T01:12:39;10.00;68.00
68433;DHT22;55412;51.350;17.056;2023-05-29T01:15:20;10.00;67.90
68433;DHT22;55412;51.350;17.056;2023-05-29T01:18:18;10.00;68.00
68433;DHT22;55412;51.350;17.056;2023-05-29T01:28:58;9.80;68.20
68433;DHT22;55412;51.350;17.056;2023-05-29T01:31:26;9.70;68.40
68433;DHT22;55412;51.350;17.056;2023-05-29T01:33:55;9.60;68.60
68433;DHT22;55412;51.350;17.056;2023-05-29T01:36:23;9.60;68.80
68433;DHT22;55412;51.350;17.056;2023-05-29T01:38:51;9.50;69.10
68433;DHT22;55412;51.350;17.056;2023-05-29T01:41:18;9.50;69.20
68433;DHT22;55412;51.350;17.056;2023-05-29T01:43:47;9.50;69.20
68433;DHT22;55412;51.350;17.056;2023-05-29T01:46:14;9.40;69.50
68433;DHT22;55412;51.350;17.056;2023-05-29T01:48:41;9.50;69.80
68433;DHT22;55412;51.350;17.056;2023-05-29T01:51:09;9.50;69.80
68433;DHT22;55412;51.350;17.056;2023-05-29T01:53:40;9.40;70.30
68433;DHT22;55412;51.350;17.056;2023-05-29T01:56:07;9.40;70.50
68433;DHT22;55412;51.350;17.056;2023-05-29T01:58:34;9.30;71.20
68433;DHT22;55412;51.350;17.056;2023-05-29T02:01:06;9.30;71.60
68433;DHT22;55412;51.350;17.056;2023-05-29T02:03:33;9.20;71.90
68433;DHT22;55412;51.350;17.056;2023-05-29T02:06:00;9.20;72.00
68433;DHT22;55412;51.350;17.056;2023-05-29T02:08:26;9.20;71.90
68433;DHT22;55412;51.350;17.056;2023-05-29T02:10:53;9.20;71.60
68433;DHT22;55412;51.350;17.056;2023-05-29T02:13:19;9.30;71.50
68433;DHT22;55412;51.350;17.056;2023-05-29T02:15:46;9.20;71.10
68433;DHT22;55412;51.350;17.056;2023-05-29T02:18:15;9.20;71.00
68433;DHT22;55412;51.350;17.056;2023-05-29T02:20:42;9.10;71.10
68433;DHT22;55412;51.350;17.056;2023-05-29T02:23:09;9.10;71.20
68433;DHT22;55412;51.350;17.056;2023-05-29T02:25:35;9.10;70.80
68433;DHT22;55412;51.350;17.056;2023-05-29T02:28:02;9.10;70.50
68433;DHT22;55412;51.350;17.056;2023-05-29T02:30:28;9.00;70.50
68433;DHT22;55412;51.350;17.056;2023-05-29T02:32:55;9.00;70.70
68433;DHT22;55412;51.350;17.056;2023-05-29T02:35:21;8.90;70.70
68433;DHT22;55412;51.350;17.056;2023-05-29T02:37:52;8.90;70.50
68433;DHT22;55412;51.350;17.056;2023-05-29T02:40:19;8.90;70.80
68433;DHT22;55412;51.350;17.056;2023-05-29T02:42:46;8.80;71.10
68433;DHT22;55412;51.350;17.056;2023-05-29T02:45:12;8.80;71.40
68433;DHT22;55412;51.350;17.056;2023-05-29T02:47:38;8.80;71.60
68433;DHT22;55412;51.350;17.056;2023-05-29T02:50:05;8.80;71.60
68433;DHT22;55412;51.350;17.056;2023-05-29T02:52:35;8.80;71.50
68433;DHT22;55412;51.350;17.056;2023-05-29T02:55:03;8.80;71.60
68433;DHT22;55412;51.350;17.056;2023-05-29T02:57:31;8.70;71.70
68433;DHT22;55412;51.350;17.056;2023-05-29T02:59:58;8.60;71.70
68433;DHT22;55412;51.350;17.056;2023-05-29T03:02:24;8.60;71.90
68433;DHT22;55412;51.350;17.056;2023-05-29T03:04:51;8.60;72.00
68433;DHT22;55412;51.350;17.056;2023-05-29T03:07:17;8.50;72.30
68433;DHT22;55412;51.350;17.056;2023-05-29T03:09:44;8.50;72.30
68433;DHT22;55412;51.350;17.056;2023-05-29T03:12:10;8.50;72.40
68433;DHT22;55412;51.350;17.056;2023-05-29T03:14:37;8.50;72.10
68433;DHT22;55412;51.350;17.056;2023-05-29T03:17:07;8.50;72.70
68433;DHT22;55412;51.350;17.056;2023-05-29T03:19:36;8.60;73.00
68433;DHT22;55412;51.350;17.056;2023-05-29T03:22:03;8.60;73.30
68433;DHT22;55412;51.350;17.056;2023-05-29T03:24:29;8.60;73.60
68433;DHT22;55412;51.350;17.056;2023-05-29T03:26:55;8.70;73.80
68433;DHT22;55412;51.350;17.056;2023-05-29T03:29:22;8.80;74.00
68433;DHT22;55412;51.350;17.056;2023-05-29T03:31:48;8.80;74.10
68433;DHT22;55412;51.350;17.056;2023-05-29T03:34:14;8.90;74.00
68433;DHT22;55412;51.350;17.056;2023-05-29T03:36:40;8.90;74.00
68433;DHT22;55412;51.350;17.056;2023-05-29T03:39:06;9.00;74.00
68433;DHT22;55412;51.350;17.056;2023-05-29T03:41:32;9.00;74.20
68433;DHT22;55412;51.350;17.056;2023-05-29T03:43:58;9.10;74.40
68433;DHT22;55412;51.350;17.056;2023-05-29T03:46:24;9.20;74.30
68433;DHT22;55412;51.350;17.056;2023-05-29T03:48:50;9.30;74.20
68433;DHT22;55412;51.350;17.056;2023-05-29T03:51:16;9.50;74.10
68433;DHT22;55412;51.350;17.056;2023-05-29T03:53:42;9.60;73.80
68433;DHT22;55412;51.350;17.056;2023-05-29T03:56:08;9.70;73.30
68433;DHT22;55412;51.350;17.056;2023-05-29T03:58:34;9.90;73.40
68433;DHT22;55412;51.350;17.056;2023-05-29T04:01:02;10.00;72.90
68433;DHT22;55412;51.350;17.056;2023-05-29T04:03:28;10.20;72.80
68433;DHT22;55412;51.350;17.056;2023-05-29T04:05:55;10.30;72.80
68433;DHT22;55412;51.350;17.056;2023-05-29T04:08:21;10.50;72.40
68433;DHT22;55412;51.350;17.056;2023-05-29T04:10:47;10.70;71.90
68433;DHT22;55412;51.350;17.056;2023-05-29T04:13:13;10.80;71.60
68433;DHT22;55412;51.350;17.056;2023-05-29T04:15:39;11.00;71.20
68433;DHT22;55412;51.350;17.056;2023-05-29T04:18:05;11.20;71.00
68433;DHT22;55412;51.350;17.056;2023-05-29T04:20:31;11.30;70.90
68433;DHT22;55412;51.350;17.056;2023-05-29T04:22:57;11.50;70.00
68433;DHT22;55412;51.350;17.056;2023-05-29T04:25:23;11.80;68.60
68433;DHT22;55412;51.350;17.056;2023-05-29T04:27:49;12.00;67.30
68433;DHT22;55412;51.350;17.056;2023-05-29T04:30:16;12.30;66.90
68433;DHT22;55412;51.350;17.056;2023-05-29T04:32:42;12.60;65.20
68433;DHT22;55412;51.350;17.056;2023-05-29T04:35:08;12.90;64.80
68433;DHT22;55412;51.350;17.056;2023-05-29T04:37:36;13.20;64.10
68433;DHT22;55412;51.350;17.056;2023-05-29T04:40:06;13.50;63.30
68433;DHT22;55412;51.350;17.056;2023-05-29T04:42:37;14.00;62.00
68433;DHT22;55412;51.350;17.056;2023-05-29T04:45:06;14.40;60.80
68433;DHT22;55412;51.350;17.056;2023-05-29T04:47:32;14.80;59.60
68433;DHT22;55412;51.350;17.056;2023-05-29T04:49:59;15.20;58.50
68433;DHT22;55412;51.350;17.056;2023-05-29T04:52:26;15.60;57.40
68433;DHT22;55412;51.350;17.056;2023-05-29T04:54:55;15.90;56.50
68433;DHT22;55412;51.350;17.056;2023-05-29T04:57:22;16.20;54.90
68433;DHT22;55412;51.350;17.056;2023-05-29T04:59:48;16.40;54.90
68433;DHT22;55412;51.350;17.056;2023-05-29T05:02:14;16.70;54.50
68433;DHT22;55412;51.350;17.056;2023-05-29T05:04:40;17.10;53.40
68433;DHT22;55412;51.350;17.056;2023-05-29T05:07:08;17.40;52.50
68433;DHT22;55412;51.350;17.056;2023-05-29T05:09:35;17.70;52.10
68433;DHT22;55412;51.350;17.056;2023-05-29T05:12:01;18.10;51.70
68433;DHT22;55412;51.350;17.056;2023-05-29T05:14:27;18.50;51.40
68433;DHT22;55412;51.350;17.056;2023-05-29T05:16:53;18.80;50.40
68433;DHT22;55412;51.350;17.056;2023-05-29T05:19:20;19.10;50.30
68433;DHT22;55412;51.350;17.056;2023-05-29T05:21:46;19.50;49.00
68433;DHT22;55412;51.350;17.056;2023-05-29T05:24:12;19.90;49.20
68433;DHT22;55412;51.350;17.056;2023-05-29T05:26:38;20.30;47.80
68433;DHT22;55412;51.350;17.056;2023-05-29T05:29:04;20.70;48.00
68433;DHT22;55412;51.350;17.056;2023-05-29T05:31:30;21.10;46.10
68433;DHT22;55412;51.350;17.056;2023-05-29T05:33:56;21.50;45.00
68433;DHT22;55412;51.350;17.056;2023-05-29T05:36:23;21.90;43.90
68433;DHT22;55412;51.350;17.056;2023-05-29T05:38:49;22.30;43.40
68433;DHT22;55412;51.350;17.056;2023-05-29T05:41:15;22.60;43.00
68433;DHT22;55412;51.350;17.056;2023-05-29T05:43:41;22.90;42.20
68433;DHT22;55412;51.350;17.056;2023-05-29T05:46:07;23.30;41.80
68433;DHT22;55412;51.350;17.056;2023-05-29T05:48:33;23.70;41.60
68433;DHT22;55412;51.350;17.056;2023-05-29T05:50:59;24.10;40.50
68433;DHT22;55412;51.350;17.056;2023-05-29T05:53:25;24.60;39.80
68433;DHT22;55412;51.350;17.056;2023-05-29T05:55:51;25.20;39.70
68433;DHT22;55412;51.350;17.056;2023-05-29T05:58:17;25.70;38.80
68433;DHT22;55412;51.350;17.056;2023-05-29T06:00:43;26.20;38.20
68433;DHT22;55412;51.350;17.056;2023-05-29T06:03:09;26.70;38.10
68433;DHT22;55412;51.350;17.056;2023-05-29T06:05:35;27.20;36.80
68433;DHT22;55412;51.350;17.056;2023-05-29T06:08:03;27.70;36.10
68433;DHT22;55412;51.350;17.056;2023-05-29T06:10:29;28.00;35.90
68433;DHT22;55412;51.350;17.056;2023-05-29T06:12:55;28.30;35.60
68433;DHT22;55412;51.350;17.056;2023-05-29T06:15:21;28.70;34.40
68433;DHT22;55412;51.350;17.056;2023-05-29T06:17:47;29.10;34.50
68433;DHT22;55412;51.350;17.056;2023-05-29T06:20:14;29.50;33.90
68433;DHT22;55412;51.350;17.056;2023-05-29T06:22:40;29.90;31.70
68433;DHT22;55412;51.350;17.056;2023-05-29T06:25:06;30.10;31.70
68433;DHT22;55412;51.350;17.056;2023-05-29T06:27:32;30.50;31.30
68433;DHT22;55412;51.350;17.056;2023-05-29T06:29:58;31.00;30.80
68433;DHT22;55412;51.350;17.056;2023-05-29T06:32:24;31.40;30.40
68433;DHT22;55412;51.350;17.056;2023-05-29T06:34:51;31.80;29.50
68433;DHT22;55412;51.350;17.056;2023-05-29T06:37:18;32.10;29.20
68433;DHT22;55412;51.350;17.056;2023-05-29T06:39:46;32.40;29.80
68433;DHT22;55412;51.350;17.056;2023-05-29T06:42:13;32.60;29.80
68433;DHT22;55412;51.350;17.056;2023-05-29T06:44:39;33.00;29.80
68433;DHT22;55412;51.350;17.056;2023-05-29T06:47:06;33.30;29.40
68433;DHT22;55412;51.350;17.056;2023-05-29T06:49:32;33.60;28.70
68433;DHT22;55412;51.350;17.056;2023-05-29T06:51:58;34.00;28.90
68433;DHT22;55412;51.350;17.056;2023-05-29T06:54:25;34.30;28.10
68433;DHT22;55412;51.350;17.056;2023-05-29T06:56:51;34.70;27.40
68433;DHT22;55412;51.350;17.056;2023-05-29T06:59:19;35.00;26.80
68433;DHT22;55412;51.350;17.056;2023-05-29T07:01:46;35.20;26.70
68433;DHT22;55412;51.350;17.056;2023-05-29T07:04:12;35.30;27.20
68433;DHT22;55412;51.350;17.056;2023-05-29T07:06:38;35.40;26.80
68433;DHT22;55412;51.350;17.056;2023-05-29T07:09:04;35.50;26.60
68433;DHT22;55412;51.350;17.056;2023-05-29T07:11:30;35.60;26.90
68433;DHT22;55412;51.350;17.056;2023-05-29T07:13:56;35.60;26.50
68433;DHT22;55412;51.350;17.056;2023-05-29T07:16:22;35.50;27.50
68433;DHT22;55412;51.350;17.056;2023-05-29T07:18:48;35.30;27.30
68433;DHT22;55412;51.350;17.056;2023-05-29T07:21:14;34.70;26.80
68433;DHT22;55412;51.350;17.056;2023-05-29T07:23:42;34.00;27.80
68433;DHT22;55412;51.350;17.056;2023-05-29T07:26:08;33.10;29.10
68433;DHT22;55412;51.350;17.056;2023-05-29T07:28:34;32.20;29.10
68433;DHT22;55412;51.350;17.056;2023-05-29T07:31:00;31.30;30.70
68433;DHT22;55412;51.350;17.056;2023-05-29T07:33:26;30.50;30.80
68433;DHT22;55412;51.350;17.056;2023-05-29T07:35:52;29.80;32.50
68433;DHT22;55412;51.350;17.056;2023-05-29T07:38:18;29.30;33.50
68433;DHT22;55412;51.350;17.056;2023-05-29T07:40:44;29.00;34.10
68433;DHT22;55412;51.350;17.056;2023-05-29T07:43:10;28.50;32.90
68433;DHT22;55412;51.350;17.056;2023-05-29T07:45:36;28.00;33.80
68433;DHT22;55412;51.350;17.056;2023-05-29T07:48:02;27.60;34.10
68433;DHT22;55412;51.350;17.056;2023-05-29T07:50:28;27.30;34.60
68433;DHT22;55412;51.350;17.056;2023-05-29T07:52:54;27.00;34.60
68433;DHT22;55412;51.350;17.056;2023-05-29T07:55:21;26.80;34.70
68433;DHT22;55412;51.350;17.056;2023-05-29T07:57:47;26.50;35.30
68433;DHT22;55412;51.350;17.056;2023-05-29T08:00:15;26.40;34.70
68433;DHT22;55412;51.350;17.056;2023-05-29T08:02:41;26.20;34.10
68433;DHT22;55412;51.350;17.056;2023-05-29T08:05:08;26.00;33.10
68433;DHT22;55412;51.350;17.056;2023-05-29T08:07:36;25.80;31.10
68433;DHT22;55412;51.350;17.056;2023-05-29T08:10:02;25.70;32.10
68433;DHT22;55412;51.350;17.056;2023-05-29T08:12:30;25.60;32.40
68433;DHT22;55412;51.350;17.056;2023-05-29T08:14:57;25.50;34.30
68433;DHT22;55412;51.350;17.056;2023-05-29T08:17:23;25.50;33.20
68433;DHT22;55412;51.350;17.056;2023-05-29T08:19:49;25.40;33.90
68433;DHT22;55412;51.350;17.056;2023-05-29T08:22:15;25.30;34.10
68433;DHT22;55412;51.350;17.056;2023-05-29T08:24:41;25.30;34.90
68433;DHT22;55412;51.350;17.056;2023-05-29T08:27:07;25.30;33.80
68433;DHT22;55412;51.350;17.056;2023-05-29T08:29:33;25.30;33.50
68433;DHT22;55412;51.350;17.056;2023-05-29T08:32:01;25.30;33.90
68433;DHT22;55412;51.350;17.056;2023-05-29T08:34:27;25.20;33.30
68433;DHT22;55412;51.350;17.056;2023-05-29T08:36:53;25.10;34.20
68433;DHT22;55412;51.350;17.056;2023-05-29T08:39:20;25.10;35.30
68433;DHT22;55412;51.350;17.056;2023-05-29T08:41:51;25.10;34.50
68433;DHT22;55412;51.350;17.056;2023-05-29T08:44:30;25.10;34.00
68433;DHT22;55412;51.350;17.056;2023-05-29T08:47:02;25.10;35.10
68433;DHT22;55412;51.350;17.056;2023-05-29T08:49:40;25.20;35.60
68433;DHT22;55412;51.350;17.056;2023-05-29T08:52:16;25.20;34.00
68433;DHT22;55412;51.350;17.056;2023-05-29T08:54:44;24.70;34.80
68433;DHT22;55412;51.350;17.056;2023-05-29T08:57:12;24.60;35.00
68433;DHT22;55412;51.350;17.056;2023-05-29T08:59:44;24.50;33.70
68433;DHT22;55412;51.350;17.056;2023-05-29T09:02:11;24.30;33.40
68433;DHT22;55412;51.350;17.056;2023-05-29T09:04:38;24.00;36.40
68433;DHT22;55412;51.350;17.056;2023-05-29T09:07:04;23.90;35.50
68433;DHT22;55412;51.350;17.056;2023-05-29T09:09:34;23.90;35.80
68433;DHT22;55412;51.350;17.056;2023-05-29T09:12:00;23.90;36.70
68433;DHT22;55412;51.350;17.056;2023-05-29T09:14:42;24.10;36.40
68433;DHT22;55412;51.350;17.056;2023-05-29T09:17:11;24.30;34.80
68433;DHT22;55412;51.350;17.056;2023-05-29T09:19:38;24.40;33.10
68433;DHT22;55412;51.350;17.056;2023-05-29T09:22:07;24.40;32.90
68433;DHT22;55412;51.350;17.056;2023-05-29T09:24:37;24.50;34.90
68433;DHT22;55412;51.350;17.056;2023-05-29T09:27:07;24.60;34.20
68433;DHT22;55412;51.350;17.056;2023-05-29T09:29:41;24.80;34.10
68433;DHT22;55412;51.350;17.056;2023-05-29T09:34:35;24.80;33.80
68433;DHT22;55412;51.350;17.056;2023-05-29T09:37:03;24.90;32.80
68433;DHT22;55412;51.350;17.056;2023-05-29T09:39:52;24.90;33.20
68433;DHT22;55412;51.350;17.056;2023-05-29T09:42:18;25.00;33.90
68433;DHT22;55412;51.350;17.056;2023-05-29T09:44:49;25.10;33.10
68433;DHT22;55412;51.350;17.056;2023-05-29T09:47:19;25.20;32.60
68433;DHT22;55412;51.350;17.056;2023-05-29T09:49:45;25.30;32.80
68433;DHT22;55412;51.350;17.056;2023-05-29T09:52:12;25.30;33.00
68433;DHT22;55412;51.350;17.056;2023-05-29T09:54:43;25.40;32.10
68433;DHT22;55412;51.350;17.056;2023-05-29T09:57:13;25.40;33.20
68433;DHT22;55412;51.350;17.056;2023-05-29T09:59:43;25.40;32.70
68433;DHT22;55412;51.350;17.056;2023-05-29T10:02:11;25.30;33.30
68433;DHT22;55412;51.350;17.056;2023-05-29T10:04:39;25.30;33.50
68433;DHT22;55412;51.350;17.056;2023-05-29T10:07:28;25.40;33.60
68433;DHT22;55412;51.350;17.056;2023-05-29T10:10:02;25.40;33.00
68433;DHT22;55412;51.350;17.056;2023-05-29T10:12:38;25.40;33.40
68433;DHT22;55412;51.350;17.056;2023-05-29T10:15:15;25.30;32.60
68433;DHT22;55412;51.350;17.056;2023-05-29T10:17:53;25.30;32.50
68433;DHT22;55412;51.350;17.056;2023-05-29T10:20:23;25.20;33.50
68433;DHT22;55412;51.350;17.056;2023-05-29T10:22:52;25.30;33.20
68433;DHT22;55412;51.350;17.056;2023-05-29T10:25:20;25.30;32.30
68433;DHT22;55412;51.350;17.056;2023-05-29T10:27:48;25.20;34.30
68433;DHT22;55412;51.350;17.056;2023-05-29T10:30:38;25.20;35.60
68433;DHT22;55412;51.350;17.056;2023-05-29T10:36:13;25.10;33.80
68433;DHT22;55412;51.350;17.056;2023-05-29T10:38:46;25.10;33.40
68433;DHT22;55412;51.350;17.056;2023-05-29T10:46:21;24.90;34.60
68433;DHT22;55412;51.350;17.056;2023-05-29T10:48:51;24.90;34.90
68433;DHT22;55412;51.350;17.056;2023-05-29T10:51:27;25.00;34.50
68433;DHT22;55412;51.350;17.056;2023-05-29T10:53:53;25.00;34.80
68433;DHT22;55412;51.350;17.056;2023-05-29T10:56:27;25.00;33.40
68433;DHT22;55412;51.350;17.056;2023-05-29T10:58:57;25.00;34.30
68433;DHT22;55412;51.350;17.056;2023-05-29T11:01:24;25.00;33.60
68433;DHT22;55412;51.350;17.056;2023-05-29T11:03:51;25.10;33.70
68433;DHT22;55412;51.350;17.056;2023-05-29T11:06:21;25.10;33.00
68433;DHT22;55412;51.350;17.056;2023-05-29T11:08:55;25.20;34.40
68433;DHT22;55412;51.350;17.056;2023-05-29T11:14:05;25.30;34.00
68433;DHT22;55412;51.350;17.056;2023-05-29T11:19:05;25.30;32.60
68433;DHT22;55412;51.350;17.056;2023-05-29T11:24:38;25.20;33.10
68433;DHT22;55412;51.350;17.056;2023-05-29T11:27:06;25.10;34.40
68433;DHT22;55412;51.350;17.056;2023-05-29T11:29:34;25.10;32.90
68433;DHT22;55412;51.350;17.056;2023-05-29T11:32:12;25.10;34.60
68433;DHT22;55412;51.350;17.056;2023-05-29T11:34:41;25.10;35.40
68433;DHT22;55412;51.350;17.056;2023-05-29T11:37:08;25.20;34.70
68433;DHT22;55412;51.350;17.056;2023-05-29T11:39:37;25.30;34.80
68433;DHT22;55412;51.350;17.056;2023-05-29T11:42:04;25.30;33.20
68433;DHT22;55412;51.350;17.056;2023-05-29T11:44:32;25.30;32.80
68433;DHT22;55412;51.350;17.056;2023-05-29T11:47:05;25.30;33.60
68433;DHT22;55412;51.350;17.056;2023-05-29T11:49:34;25.40;34.40
68433;DHT22;55412;51.350;17.056;2023-05-29T11:52:11;25.40;33.20
68433;DHT22;55412;51.350;17.056;2023-05-29T11:54:40;25.30;32.90
68433;DHT22;55412;51.350;17.056;2023-05-29T11:57:20;25.30;34.00
68433;DHT22;55412;51.350;17.056;2023-05-29T11:59:47;25.30;33.10
68433;DHT22;55412;51.350;17.056;2023-05-29T12:02:15;25.30;33.20
68433;DHT22;55412;51.350;17.056;2023-05-29T12:04:41;25.30;34.90
68433;DHT22;55412;51.350;17.056;2023-05-29T12:07:19;25.30;32.40
68433;DHT22;55412;51.350;17.056;2023-05-29T12:09:45;25.30;32.40
68433;DHT22;55412;51.350;17.056;2023-05-29T12:12:11;25.30;33.00
68433;DHT22;55412;51.350;17.056;2023-05-29T12:14:37;25.30;32.80
68433;DHT22;55412;51.350;17.056;2023-05-29T12:17:04;25.30;33.10
68433;DHT22;55412;51.350;17.056;2023-05-29T12:19:30;25.30;33.30
68433;DHT22;55412;51.350;17.056;2023-05-29T12:21:57;25.30;33.00
68433;DHT22;55412;51.350;17.056;2023-05-29T12:24:23;25.30;33.00
68433;DHT22;55412;51.350;17.056;2023-05-29T12:26:49;25.30;34.90
68433;DHT22;55412;51.350;17.056;2023-05-29T12:29:16;25.40;33.10
68433;DHT22;55412;51.350;17.056;2023-05-29T12:31:42;25.40;31.90
68433;DHT22;55412;51.350;17.056;2023-05-29T12:34:10;25.40;32.30
68433;DHT22;55412;51.350;17.056;2023-05-29T12:36:41;25.40;31.60
68433;DHT22;55412;51.350;17.056;2023-05-29T12:39:08;25.40;33.40
68433;DHT22;55412;51.350;17.056;2023-05-29T12:41:35;25.40;33.10
68433;DHT22;55412;51.350;17.056;2023-05-29T12:44:04;25.40;32.00
68433;DHT22;55412;51.350;17.056;2023-05-29T12:46:41;25.40;32.10
68433;DHT22;55412;51.350;17.056;2023-05-29T12:49:15;25.30;31.90
68433;DHT22;55412;51.350;17.056;2023-05-29T12:51:44;25.20;31.80
68433;DHT22;55412;51.350;17.056;2023-05-29T12:54:12;25.10;31.20
68433;DHT22;55412;51.350;17.056;2023-05-29T12:56:42;25.10;33.20
68433;DHT22;55412;51.350;17.056;2023-05-29T12:59:10;25.10;32.30
68433;DHT22;55412;51.350;17.056;2023-05-29T13:01:36;25.10;32.80
68433;DHT22;55412;51.350;17.056;2023-05-29T13:04:06;25.10;32.80
68433;DHT22;55412;51.350;17.056;2023-05-29T13:06:37;25.20;33.70
68433;DHT22;55412;51.350;17.056;2023-05-29T13:09:04;25.20;34.90
68433;DHT22;55412;51.350;17.056;2023-05-29T13:11:34;25.30;34.40
68433;DHT22;55412;51.350;17.056;2023-05-29T13:14:00;25.30;34.10
68433;DHT22;55412;51.350;17.056;2023-05-29T13:16:26;25.30;33.90
68433;DHT22;55412;51.350;17.056;2023-05-29T13:18:52;25.30;34.60
68433;DHT22;55412;51.350;17.056;2023-05-29T13:21:18;25.20;34.00
68433;DHT22;55412;51.350;17.056;2023-05-29T13:23:44;25.20;33.80
68433;DHT22;55412;51.350;17.056;2023-05-29T13:26:10;25.10;34.30
68433;DHT22;55412;51.350;17.056;2023-05-29T13:28:36;25.00;35.60
68433;DHT22;55412;51.350;17.056;2023-05-29T13:31:02;25.00;36.10
68433;DHT22;55412;51.350;17.056;2023-05-29T13:33:28;24.90;34.50
68433;DHT22;55412;51.350;17.056;2023-05-29T13:35:54;24.90;34.20
68433;DHT22;55412;51.350;17.056;2023-05-29T13:38:20;24.80;35.30
68433;DHT22;55412;51.350;17.056;2023-05-29T13:40:46;24.80;34.50
68433;DHT22;55412;51.350;17.056;2023-05-29T13:43:12;24.70;34.80
68433;DHT22;55412;51.350;17.056;2023-05-29T13:45:38;24.60;34.20
68433;DHT22;55412;51.350;17.056;2023-05-29T13:48:06;24.60;34.50
68433;DHT22;55412;51.350;17.056;2023-05-29T13:50:32;24.50;34.90
68433;DHT22;55412;51.350;17.056;2023-05-29T13:52:58;24.40;36.20
68433;DHT22;55412;51.350;17.056;2023-05-29T13:55:24;24.30;36.00
68433;DHT22;55412;51.350;17.056;2023-05-29T13:57:50;24.30;36.10
68433;DHT22;55412;51.350;17.056;2023-05-29T14:00:16;24.20;36.50
68433;DHT22;55412;51.350;17.056;2023-05-29T14:02:42;24.10;36.00
68433;DHT22;55412;51.350;17.056;2023-05-29T14:05:08;24.00;37.20
68433;DHT22;55412;51.350;17.056;2023-05-29T14:07:36;23.90;36.40
68433;DHT22;55412;51.350;17.056;2023-05-29T14:10:03;23.90;36.70
68433;DHT22;55412;51.350;17.056;2023-05-29T14:12:29;23.90;36.40
68433;DHT22;55412;51.350;17.056;2023-05-29T14:14:55;23.90;35.20
68433;DHT22;55412;51.350;17.056;2023-05-29T14:17:21;23.90;35.60
68433;DHT22;55412;51.350;17.056;2023-05-29T14:19:47;23.90;35.40
68433;DHT22;55412;51.350;17.056;2023-05-29T14:22:13;24.00;35.90
68433;DHT22;55412;51.350;17.056;2023-05-29T14:24:39;24.00;36.50
68433;DHT22;55412;51.350;17.056;2023-05-29T14:27:06;24.00;36.60
68433;DHT22;55412;51.350;17.056;2023-05-29T14:29:32;24.10;37.20
68433;DHT22;55412;51.350;17.056;2023-05-29T14:31:58;24.10;35.80
68433;DHT22;55412;51.350;17.056;2023-05-29T14:34:24;24.10;35.40
68433;DHT22;55412;51.350;17.056;2023-05-29T14:36:50;24.00;35.90
68433;DHT22;55412;51.350;17.056;2023-05-29T14:39:17;24.00;35.80
68433;DHT22;55412;51.350;17.056;2023-05-29T14:41:43;23.90;36.30
68433;DHT22;55412;51.350;17.056;2023-05-29T14:44:09;23.90;36.70
68433;DHT22;55412;51.350;17.056;2023-05-29T14:46:37;23.80;36.70
68433;DHT22;55412;51.350;17.056;2023-05-29T14:49:03;23.70;36.10
68433;DHT22;55412;51.350;17.056;2023-05-29T14:51:29;23.70;35.90
68433;DHT22;55412;51.350;17.056;2023-05-29T14:53:55;23.70;36.90
68433;DHT22;55412;51.350;17.056;2023-05-29T14:56:21;23.70;36.40
68433;DHT22;55412;51.350;17.056;2023-05-29T14:58:47;23.70;36.20
68433;DHT22;55412;51.350;17.056;2023-05-29T15:01:15;23.70;36.60
68433;DHT22;55412;51.350;17.056;2023-05-29T15:03:41;23.80;36.60
68433;DHT22;55412;51.350;17.056;2023-05-29T15:06:10;23.80;36.30
68433;DHT22;55412;51.350;17.056;2023-05-29T15:08:38;23.70;36.90
68433;DHT22;55412;51.350;17.056;2023-05-29T15:11:06;23.60;36.90
68433;DHT22;55412;51.350;17.056;2023-05-29T15:13:32;23.60;37.20
68433;DHT22;55412;51.350;17.056;2023-05-29T15:15:58;23.60;38.00
68433;DHT22;55412;51.350;17.056;2023-05-29T15:18:26;23.60;37.60
68433;DHT22;55412;51.350;17.056;2023-05-29T15:20:52;23.60;37.20
68433;DHT22;55412;51.350;17.056;2023-05-29T15:23:19;23.60;37.40
68433;DHT22;55412;51.350;17.056;2023-05-29T15:25:49;23.60;37.70
68433;DHT22;55412;51.350;17.056;2023-05-29T15:28:16;23.60;36.90
68433;DHT22;55412;51.350;17.056;2023-05-29T15:30:43;23.50;36.90
68433;DHT22;55412;51.350;17.056;2023-05-29T15:33:09;23.40;37.30
68433;DHT22;55412;51.350;17.056;2023-05-29T15:35:39;23.40;37.90
68433;DHT22;55412;51.350;17.056;2023-05-29T15:38:06;23.40;37.80
68433;DHT22;55412;51.350;17.056;2023-05-29T15:40:33;23.30;37.40
68433;DHT22;55412;51.350;17.056;2023-05-29T15:42:59;23.30;38.10
68433;DHT22;55412;51.350;17.056;2023-05-29T15:45:25;23.30;37.80
68433;DHT22;55412;51.350;17.056;2023-05-29T15:47:52;23.30;38.30